sensor_id;sensor_type;location;lat;lon;timestamp;P1;durP1;ratioP1;P2;durP2;ratioP2
22121;SDS011;11227;53.046;10.512;2022-11-13T00:00:05;25.98;;;11.32;;
22121;SDS011;11227;53.046;10.512;2022-11-13T00:04:07;32.00;;;11.45;;
22121;SDS011;11227;53.046;10.512;2022-11-13T00:08:10;27.38;;;11.55;;
22121;SDS011;11227;53.046;10.512;2022-11-13T00:12:12;29.10;;;11.80;;
22121;SDS011;11227;53.046;10.512;2022-11-13T00:16:15;27.23;;;11.25;;
22121;SDS011;11227;53.046;10.512;2022-11-13T00:20:19;29.58;;;11.43;;
22121;SDS011;11227;53.046;10.512;2022-11-13T00:24:21;22.30;;;10.15;;
22121;SDS011;11227;53.046;10.512;2022-11-13T00:28:22;24.60;;;9.73;;
22121;SDS011;11227;53.046;10.512;2022-11-13T00:32:24;27.55;;;10.65;;
22121;SDS011;11227;53.046;10.512;2022-11-13T00:36:27;28.35;;;11.02;;
22121;SDS011;11227;53.046;10.512;2022-11-13T00:40:29;24.38;;;11.27;;
22121;SDS011;11227;53.046;10.512;2022-11-13T00:44:30;30.00;;;12.00;;
22121;SDS011;11227;53.046;10.512;2022-11-13T00:48:32;29.77;;;11.13;;
22121;SDS011;11227;53.046;10.512;2022-11-13T00:52:34;25.70;;;11.13;;
22121;SDS011;11227;53.046;10.512;2022-11-13T00:56:36;23.35;;;9.77;;
22121;SDS011;11227;53.046;10.512;2022-11-13T01:00:38;25.75;;;10.63;;
22121;SDS011;11227;53.046;10.512;2022-11-13T01:04:41;21.75;;;9.48;;
22121;SDS011;11227;53.046;10.512;2022-11-13T01:08:43;23.00;;;10.38;;
22121;SDS011;11227;53.046;10.512;2022-11-13T01:12:44;23.77;;;10.57;;
22121;SDS011;11227;53.046;10.512;2022-11-13T01:16:46;24.15;;;10.05;;
22121;SDS011;11227;53.046;10.512;2022-11-13T01:20:48;20.70;;;9.73;;
22121;SDS011;11227;53.046;10.512;2022-11-13T01:24:50;20.42;;;9.30;;
22121;SDS011;11227;53.046;10.512;2022-11-13T01:28:52;20.58;;;9.23;;
22121;SDS011;11227;53.046;10.512;2022-11-13T01:32:55;21.63;;;9.95;;
22121;SDS011;11227;53.046;10.512;2022-11-13T01:36:56;23.80;;;8.65;;
22121;SDS011;11227;53.046;10.512;2022-11-13T01:40:58;26.63;;;10.32;;
22121;SDS011;11227;53.046;10.512;2022-11-13T01:45:00;20.25;;;8.57;;
22121;SDS011;11227;53.046;10.512;2022-11-13T01:53:10;20.42;;;9.35;;
22121;SDS011;11227;53.046;10.512;2022-11-13T01:57:12;24.85;;;9.27;;
22121;SDS011;11227;53.046;10.512;2022-11-13T02:01:15;19.55;;;9.38;;
22121;SDS011;11227;53.046;10.512;2022-11-13T02:05:18;18.95;;;8.73;;
22121;SDS011;11227;53.046;10.512;2022-11-13T02:09:20;18.13;;;9.38;;
22121;SDS011;11227;53.046;10.512;2022-11-13T02:13:25;20.58;;;9.00;;
22121;SDS011;11227;53.046;10.512;2022-11-13T02:17:29;19.42;;;8.57;;
22121;SDS011;11227;53.046;10.512;2022-11-13T02:21:37;18.38;;;8.55;;
22121;SDS011;11227;53.046;10.512;2022-11-13T02:25:47;16.05;;;7.85;;
22121;SDS011;11227;53.046;10.512;2022-11-13T02:29:52;20.40;;;9.23;;
22121;SDS011;11227;53.046;10.512;2022-11-13T02:33:53;17.92;;;8.60;;
22121;SDS011;11227;53.046;10.512;2022-11-13T02:37:56;20.48;;;8.75;;
22121;SDS011;11227;53.046;10.512;2022-11-13T02:41:59;17.30;;;7.90;;
22121;SDS011;11227;53.046;10.512;2022-11-13T02:46:01;17.95;;;8.38;;
22121;SDS011;11227;53.046;10.512;2022-11-13T02:50:03;15.88;;;7.93;;
22121;SDS011;11227;53.046;10.512;2022-11-13T02:54:05;19.48;;;8.70;;
22121;SDS011;11227;53.046;10.512;2022-11-13T02:58:07;18.27;;;8.65;;
22121;SDS011;11227;53.046;10.512;2022-11-13T03:02:09;19.58;;;8.75;;
22121;SDS011;11227;53.046;10.512;2022-11-13T03:06:10;19.45;;;7.80;;
22121;SDS011;11227;53.046;10.512;2022-11-13T03:10:12;19.27;;;8.00;;
22121;SDS011;11227;53.046;10.512;2022-11-13T03:14:14;22.08;;;8.45;;
22121;SDS011;11227;53.046;10.512;2022-11-13T03:18:16;17.02;;;7.60;;
22121;SDS011;11227;53.046;10.512;2022-11-13T03:22:18;15.88;;;7.55;;
22121;SDS011;11227;53.046;10.512;2022-11-13T03:26:19;18.52;;;7.35;;
22121;SDS011;11227;53.046;10.512;2022-11-13T03:30:21;16.00;;;7.45;;
22121;SDS011;11227;53.046;10.512;2022-11-13T03:34:23;16.50;;;7.63;;
22121;SDS011;11227;53.046;10.512;2022-11-13T03:38:25;15.80;;;7.13;;
22121;SDS011;11227;53.046;10.512;2022-11-13T03:42:28;16.52;;;6.78;;
22121;SDS011;11227;53.046;10.512;2022-11-13T03:46:29;16.77;;;7.95;;
22121;SDS011;11227;53.046;10.512;2022-11-13T03:50:31;17.60;;;7.22;;
22121;SDS011;11227;53.046;10.512;2022-11-13T03:54:33;15.70;;;7.57;;
22121;SDS011;11227;53.046;10.512;2022-11-13T03:58:34;14.15;;;7.50;;
22121;SDS011;11227;53.046;10.512;2022-11-13T04:02:40;15.02;;;7.22;;
22121;SDS011;11227;53.046;10.512;2022-11-13T04:06:42;11.10;;;6.28;;
22121;SDS011;11227;53.046;10.512;2022-11-13T04:10:44;13.82;;;6.93;;
22121;SDS011;11227;53.046;10.512;2022-11-13T04:14:46;13.77;;;6.30;;
22121;SDS011;11227;53.046;10.512;2022-11-13T04:18:47;15.32;;;6.60;;
22121;SDS011;11227;53.046;10.512;2022-11-13T04:22:49;19.25;;;7.00;;
22121;SDS011;11227;53.046;10.512;2022-11-13T04:26:51;12.50;;;6.55;;
22121;SDS011;11227;53.046;10.512;2022-11-13T04:30:53;14.57;;;7.03;;
22121;SDS011;11227;53.046;10.512;2022-11-13T04:34:55;15.30;;;6.65;;
22121;SDS011;11227;53.046;10.512;2022-11-13T04:38:57;14.27;;;7.18;;
22121;SDS011;11227;53.046;10.512;2022-11-13T04:42:58;14.13;;;6.68;;
22121;SDS011;11227;53.046;10.512;2022-11-13T04:47:00;12.15;;;6.72;;
22121;SDS011;11227;53.046;10.512;2022-11-13T04:51:02;10.70;;;5.72;;
22121;SDS011;11227;53.046;10.512;2022-11-13T04:55:04;13.65;;;5.90;;
22121;SDS011;11227;53.046;10.512;2022-11-13T04:59:07;12.32;;;6.30;;
22121;SDS011;11227;53.046;10.512;2022-11-13T05:03:09;12.32;;;6.28;;
22121;SDS011;11227;53.046;10.512;2022-11-13T05:07:10;15.70;;;6.53;;
22121;SDS011;11227;53.046;10.512;2022-11-13T05:11:12;10.98;;;5.57;;
22121;SDS011;11227;53.046;10.512;2022-11-13T05:15:15;13.07;;;6.30;;
22121;SDS011;11227;53.046;10.512;2022-11-13T05:19:16;11.50;;;5.93;;
22121;SDS011;11227;53.046;10.512;2022-11-13T05:23:18;9.52;;;6.15;;
22121;SDS011;11227;53.046;10.512;2022-11-13T05:27:20;10.38;;;6.25;;
22121;SDS011;11227;53.046;10.512;2022-11-13T05:31:21;11.02;;;5.53;;
22121;SDS011;11227;53.046;10.512;2022-11-13T05:35:23;10.25;;;5.20;;
22121;SDS011;11227;53.046;10.512;2022-11-13T05:39:24;9.32;;;5.25;;
22121;SDS011;11227;53.046;10.512;2022-11-13T05:43:26;10.75;;;5.55;;
22121;SDS011;11227;53.046;10.512;2022-11-13T05:47:28;11.43;;;6.38;;
22121;SDS011;11227;53.046;10.512;2022-11-13T05:51:30;9.13;;;5.50;;
22121;SDS011;11227;53.046;10.512;2022-11-13T05:55:33;10.43;;;5.60;;
22121;SDS011;11227;53.046;10.512;2022-11-13T05:59:35;9.00;;;4.75;;
22121;SDS011;11227;53.046;10.512;2022-11-13T06:03:37;9.40;;;5.18;;
22121;SDS011;11227;53.046;10.512;2022-11-13T06:07:39;12.88;;;5.45;;
22121;SDS011;11227;53.046;10.512;2022-11-13T06:11:41;11.00;;;5.93;;
22121;SDS011;11227;53.046;10.512;2022-11-13T06:15:43;9.60;;;5.43;;
22121;SDS011;11227;53.046;10.512;2022-11-13T06:19:44;8.43;;;5.05;;
22121;SDS011;11227;53.046;10.512;2022-11-13T06:23:48;9.52;;;5.25;;
22121;SDS011;11227;53.046;10.512;2022-11-13T06:27:50;10.77;;;5.20;;
22121;SDS011;11227;53.046;10.512;2022-11-13T06:31:53;10.32;;;5.28;;
22121;SDS011;11227;53.046;10.512;2022-11-13T06:35:55;9.10;;;4.70;;
22121;SDS011;11227;53.046;10.512;2022-11-13T06:39:57;10.85;;;4.85;;
22121;SDS011;11227;53.046;10.512;2022-11-13T06:43:59;8.75;;;5.05;;
22121;SDS011;11227;53.046;10.512;2022-11-13T06:48:03;8.82;;;4.45;;
22121;SDS011;11227;53.046;10.512;2022-11-13T06:52:05;10.43;;;5.35;;
22121;SDS011;11227;53.046;10.512;2022-11-13T06:56:13;8.98;;;4.85;;
22121;SDS011;11227;53.046;10.512;2022-11-13T07:00:16;8.68;;;4.80;;
22121;SDS011;11227;53.046;10.512;2022-11-13T07:04:18;7.53;;;4.22;;
22121;SDS011;11227;53.046;10.512;2022-11-13T07:08:19;11.35;;;5.15;;
22121;SDS011;11227;53.046;10.512;2022-11-13T07:12:21;8.05;;;4.90;;
22121;SDS011;11227;53.046;10.512;2022-11-13T07:16:23;8.40;;;4.57;;
22121;SDS011;11227;53.046;10.512;2022-11-13T07:20:39;8.47;;;4.70;;
22121;SDS011;11227;53.046;10.512;2022-11-13T07:24:41;10.23;;;4.75;;
22121;SDS011;11227;53.046;10.512;2022-11-13T07:28:42;7.70;;;4.50;;
22121;SDS011;11227;53.046;10.512;2022-11-13T07:32:44;7.05;;;4.38;;
22121;SDS011;11227;53.046;10.512;2022-11-13T07:36:46;8.40;;;4.57;;
22121;SDS011;11227;53.046;10.512;2022-11-13T07:40:48;5.85;;;3.90;;
22121;SDS011;11227;53.046;10.512;2022-11-13T07:44:50;7.07;;;3.63;;
22121;SDS011;11227;53.046;10.512;2022-11-13T07:48:55;6.80;;;4.20;;
22121;SDS011;11227;53.046;10.512;2022-11-13T07:52:58;9.55;;;4.15;;
22121;SDS011;11227;53.046;10.512;2022-11-13T07:57:02;6.90;;;4.10;;
22121;SDS011;11227;53.046;10.512;2022-11-13T08:01:04;9.07;;;4.45;;
22121;SDS011;11227;53.046;10.512;2022-11-13T08:05:06;9.50;;;4.90;;
22121;SDS011;11227;53.046;10.512;2022-11-13T08:09:08;9.40;;;5.47;;
22121;SDS011;11227;53.046;10.512;2022-11-13T08:13:10;12.52;;;5.07;;
22121;SDS011;11227;53.046;10.512;2022-11-13T08:17:12;11.65;;;5.05;;
22121;SDS011;11227;53.046;10.512;2022-11-13T08:21:13;14.05;;;5.00;;
22121;SDS011;11227;53.046;10.512;2022-11-13T08:25:15;12.10;;;5.03;;
22121;SDS011;11227;53.046;10.512;2022-11-13T08:29:17;12.30;;;4.93;;
22121;SDS011;11227;53.046;10.512;2022-11-13T08:33:18;11.52;;;5.65;;
22121;SDS011;11227;53.046;10.512;2022-11-13T08:37:20;16.33;;;5.38;;
22121;SDS011;11227;53.046;10.512;2022-11-13T08:41:22;18.63;;;5.22;;
22121;SDS011;11227;53.046;10.512;2022-11-13T08:45:23;15.60;;;5.25;;
22121;SDS011;11227;53.046;10.512;2022-11-13T08:49:25;18.77;;;6.03;;
22121;SDS011;11227;53.046;10.512;2022-11-13T08:53:27;17.20;;;5.63;;
22121;SDS011;11227;53.046;10.512;2022-11-13T08:57:29;14.68;;;5.20;;
22121;SDS011;11227;53.046;10.512;2022-11-13T09:01:30;17.35;;;6.00;;
22121;SDS011;11227;53.046;10.512;2022-11-13T09:05:32;21.63;;;6.35;;
22121;SDS011;11227;53.046;10.512;2022-11-13T09:09:34;11.98;;;5.43;;
22121;SDS011;11227;53.046;10.512;2022-11-13T09:13:36;15.02;;;6.38;;
22121;SDS011;11227;53.046;10.512;2022-11-13T09:17:45;16.35;;;5.60;;
22121;SDS011;11227;53.046;10.512;2022-11-13T09:21:46;13.32;;;5.30;;
22121;SDS011;11227;53.046;10.512;2022-11-13T09:25:48;13.98;;;5.90;;
22121;SDS011;11227;53.046;10.512;2022-11-13T09:29:50;12.60;;;5.22;;
22121;SDS011;11227;53.046;10.512;2022-11-13T09:33:55;15.32;;;5.07;;
22121;SDS011;11227;53.046;10.512;2022-11-13T09:37:57;13.82;;;5.85;;
22121;SDS011;11227;53.046;10.512;2022-11-13T09:42:15;14.40;;;5.43;;
22121;SDS011;11227;53.046;10.512;2022-11-13T09:50:49;11.30;;;5.03;;
22121;SDS011;11227;53.046;10.512;2022-11-13T09:54:53;14.55;;;5.05;;
22121;SDS011;11227;53.046;10.512;2022-11-13T09:59:05;11.70;;;4.80;;
22121;SDS011;11227;53.046;10.512;2022-11-13T10:03:38;16.42;;;5.40;;
22121;SDS011;11227;53.046;10.512;2022-11-13T10:08:09;10.07;;;4.90;;
22121;SDS011;11227;53.046;10.512;2022-11-13T10:12:18;13.75;;;5.60;;
22121;SDS011;11227;53.046;10.512;2022-11-13T10:16:38;11.27;;;4.82;;
22121;SDS011;11227;53.046;10.512;2022-11-13T10:20:47;11.10;;;4.90;;
22121;SDS011;11227;53.046;10.512;2022-11-13T10:24:51;12.10;;;4.72;;
22121;SDS011;11227;53.046;10.512;2022-11-13T10:29:07;14.02;;;4.93;;
22121;SDS011;11227;53.046;10.512;2022-11-13T10:33:13;11.93;;;4.53;;
22121;SDS011;11227;53.046;10.512;2022-11-13T10:37:29;8.77;;;4.90;;
22121;SDS011;11227;53.046;10.512;2022-11-13T10:41:51;9.13;;;4.15;;
22121;SDS011;11227;53.046;10.512;2022-11-13T10:45:56;9.30;;;4.60;;
22121;SDS011;11227;53.046;10.512;2022-11-13T10:50:09;9.57;;;4.65;;
22121;SDS011;11227;53.046;10.512;2022-11-13T10:54:19;7.60;;;3.67;;
22121;SDS011;11227;53.046;10.512;2022-11-13T10:58:22;10.93;;;4.63;;
22121;SDS011;11227;53.046;10.512;2022-11-13T11:02:24;9.32;;;4.20;;
22121;SDS011;11227;53.046;10.512;2022-11-13T11:06:33;7.95;;;4.05;;
22121;SDS011;11227;53.046;10.512;2022-11-13T11:11:16;7.78;;;4.63;;
22121;SDS011;11227;53.046;10.512;2022-11-13T11:20:05;8.48;;;4.30;;
22121;SDS011;11227;53.046;10.512;2022-11-13T11:24:28;10.65;;;4.57;;
22121;SDS011;11227;53.046;10.512;2022-11-13T11:37:20;7.88;;;4.40;;
22121;SDS011;11227;53.046;10.512;2022-11-13T11:41:26;7.70;;;4.90;;
22121;SDS011;11227;53.046;10.512;2022-11-13T11:45:34;9.10;;;4.22;;
22121;SDS011;11227;53.046;10.512;2022-11-13T11:49:40;7.75;;;4.50;;
22121;SDS011;11227;53.046;10.512;2022-11-13T11:53:56;11.75;;;4.63;;
22121;SDS011;11227;53.046;10.512;2022-11-13T12:15:25;9.45;;;4.07;;
22121;SDS011;11227;53.046;10.512;2022-11-13T12:19:33;11.13;;;4.40;;
22121;SDS011;11227;53.046;10.512;2022-11-13T12:24:08;5.30;;;3.88;;
22121;SDS011;11227;53.046;10.512;2022-11-13T12:37:41;6.65;;;4.65;;
22121;SDS011;11227;53.046;10.512;2022-11-13T12:42:34;8.82;;;4.40;;
22121;SDS011;11227;53.046;10.512;2022-11-13T12:46:18;7.00;;;4.43;;
22121;SDS011;11227;53.046;10.512;2022-11-13T12:54:35;7.38;;;4.63;;
22121;SDS011;11227;53.046;10.512;2022-11-13T12:58:37;7.47;;;4.25;;
22121;SDS011;11227;53.046;10.512;2022-11-13T13:02:48;8.23;;;4.18;;
22121;SDS011;11227;53.046;10.512;2022-11-13T13:11:25;7.45;;;4.50;;
22121;SDS011;11227;53.046;10.512;2022-11-13T13:15:36;8.98;;;4.45;;
22121;SDS011;11227;53.046;10.512;2022-11-13T13:19:55;7.00;;;4.43;;
22121;SDS011;11227;53.046;10.512;2022-11-13T13:24:05;5.67;;;3.87;;
22121;SDS011;11227;53.046;10.512;2022-11-13T13:28:19;7.15;;;4.03;;
22121;SDS011;11227;53.046;10.512;2022-11-13T13:32:35;7.53;;;4.32;;
22121;SDS011;11227;53.046;10.512;2022-11-13T13:49:34;6.43;;;4.25;;
22121;SDS011;11227;53.046;10.512;2022-11-13T13:53:37;8.57;;;3.72;;
22121;SDS011;11227;53.046;10.512;2022-11-13T13:57:39;10.40;;;5.13;;
22121;SDS011;11227;53.046;10.512;2022-11-13T14:01:51;5.22;;;3.55;;
22121;SDS011;11227;53.046;10.512;2022-11-13T14:06:09;6.95;;;3.67;;
22121;SDS011;11227;53.046;10.512;2022-11-13T14:10:15;7.32;;;3.60;;
22121;SDS011;11227;53.046;10.512;2022-11-13T14:14:19;6.65;;;3.85;;
22121;SDS011;11227;53.046;10.512;2022-11-13T14:18:22;7.22;;;3.75;;
22121;SDS011;11227;53.046;10.512;2022-11-13T14:22:23;6.95;;;3.90;;
22121;SDS011;11227;53.046;10.512;2022-11-13T14:26:25;8.23;;;3.78;;
22121;SDS011;11227;53.046;10.512;2022-11-13T14:30:27;5.40;;;3.67;;
22121;SDS011;11227;53.046;10.512;2022-11-13T14:34:30;8.18;;;4.30;;
22121;SDS011;11227;53.046;10.512;2022-11-13T14:38:33;5.50;;;3.58;;
22121;SDS011;11227;53.046;10.512;2022-11-13T14:42:37;7.50;;;4.50;;
22121;SDS011;11227;53.046;10.512;2022-11-13T14:46:43;5.63;;;3.20;;
22121;SDS011;11227;53.046;10.512;2022-11-13T14:50:50;5.18;;;3.63;;
22121;SDS011;11227;53.046;10.512;2022-11-13T14:55:02;6.78;;;4.22;;
22121;SDS011;11227;53.046;10.512;2022-11-13T14:59:23;7.68;;;3.72;;
22121;SDS011;11227;53.046;10.512;2022-11-13T15:03:26;4.95;;;3.78;;
22121;SDS011;11227;53.046;10.512;2022-11-13T15:07:29;5.20;;;4.18;;
22121;SDS011;11227;53.046;10.512;2022-11-13T15:11:33;7.20;;;3.42;;
22121;SDS011;11227;53.046;10.512;2022-11-13T15:15:35;5.45;;;3.53;;
22121;SDS011;11227;53.046;10.512;2022-11-13T15:19:36;6.47;;;3.83;;
22121;SDS011;11227;53.046;10.512;2022-11-13T15:23:39;6.75;;;4.07;;
22121;SDS011;11227;53.046;10.512;2022-11-13T15:27:41;6.50;;;4.03;;
22121;SDS011;11227;53.046;10.512;2022-11-13T15:31:44;5.57;;;3.90;;
22121;SDS011;11227;53.046;10.512;2022-11-13T15:35:46;4.68;;;3.58;;
22121;SDS011;11227;53.046;10.512;2022-11-13T15:39:48;6.63;;;3.63;;
22121;SDS011;11227;53.046;10.512;2022-11-13T15:43:51;5.07;;;3.72;;
22121;SDS011;11227;53.046;10.512;2022-11-13T15:47:54;6.45;;;4.30;;
22121;SDS011;11227;53.046;10.512;2022-11-13T15:51:56;6.97;;;3.55;;
22121;SDS011;11227;53.046;10.512;2022-11-13T15:55:58;4.70;;;3.50;;
22121;SDS011;11227;53.046;10.512;2022-11-13T16:00:03;4.43;;;3.22;;
22121;SDS011;11227;53.046;10.512;2022-11-13T16:04:07;6.03;;;3.13;;
22121;SDS011;11227;53.046;10.512;2022-11-13T16:08:11;5.38;;;3.47;;
22121;SDS011;11227;53.046;10.512;2022-11-13T16:12:15;6.07;;;3.60;;
22121;SDS011;11227;53.046;10.512;2022-11-13T16:16:18;5.72;;;3.80;;
22121;SDS011;11227;53.046;10.512;2022-11-13T16:20:24;5.82;;;3.90;;
22121;SDS011;11227;53.046;10.512;2022-11-13T16:24:26;6.32;;;4.03;;
22121;SDS011;11227;53.046;10.512;2022-11-13T16:28:28;8.25;;;3.53;;
22121;SDS011;11227;53.046;10.512;2022-11-13T16:32:37;5.30;;;3.72;;
22121;SDS011;11227;53.046;10.512;2022-11-13T16:36:39;5.70;;;3.63;;
22121;SDS011;11227;53.046;10.512;2022-11-13T16:40:41;4.05;;;3.15;;
22121;SDS011;11227;53.046;10.512;2022-11-13T16:44:43;6.07;;;3.60;;
22121;SDS011;11227;53.046;10.512;2022-11-13T16:48:46;4.63;;;3.40;;
22121;SDS011;11227;53.046;10.512;2022-11-13T16:52:48;5.22;;;3.78;;
22121;SDS011;11227;53.046;10.512;2022-11-13T16:56:50;5.00;;;3.38;;
22121;SDS011;11227;53.046;10.512;2022-11-13T17:00:52;5.18;;;3.40;;
22121;SDS011;11227;53.046;10.512;2022-11-13T17:05:00;4.55;;;3.40;;
22121;SDS011;11227;53.046;10.512;2022-11-13T17:09:02;4.82;;;3.33;;
22121;SDS011;11227;53.046;10.512;2022-11-13T17:13:04;5.68;;;3.45;;
22121;SDS011;11227;53.046;10.512;2022-11-13T17:17:07;5.63;;;3.63;;
22121;SDS011;11227;53.046;10.512;2022-11-13T17:25:17;4.28;;;2.95;;
22121;SDS011;11227;53.046;10.512;2022-11-13T17:29:20;4.35;;;3.15;;
22121;SDS011;11227;53.046;10.512;2022-11-13T17:33:22;5.22;;;3.20;;
22121;SDS011;11227;53.046;10.512;2022-11-13T17:37:24;6.43;;;3.63;;
22121;SDS011;11227;53.046;10.512;2022-11-13T17:41:25;6.63;;;3.20;;
22121;SDS011;11227;53.046;10.512;2022-11-13T17:45:27;5.00;;;3.25;;
22121;SDS011;11227;53.046;10.512;2022-11-13T17:49:29;6.20;;;3.85;;
22121;SDS011;11227;53.046;10.512;2022-11-13T17:53:31;4.65;;;3.25;;
22121;SDS011;11227;53.046;10.512;2022-11-13T17:57:33;4.57;;;3.30;;
22121;SDS011;11227;53.046;10.512;2022-11-13T18:01:35;6.20;;;3.60;;
22121;SDS011;11227;53.046;10.512;2022-11-13T18:05:37;4.53;;;3.47;;
22121;SDS011;11227;53.046;10.512;2022-11-13T18:09:41;4.38;;;3.22;;
22121;SDS011;11227;53.046;10.512;2022-11-13T18:13:42;4.22;;;3.58;;
22121;SDS011;11227;53.046;10.512;2022-11-13T18:17:44;5.40;;;3.53;;
22121;SDS011;11227;53.046;10.512;2022-11-13T18:21:46;5.53;;;3.40;;
22121;SDS011;11227;53.046;10.512;2022-11-13T18:25:48;5.63;;;3.70;;
22121;SDS011;11227;53.046;10.512;2022-11-13T18:29:49;4.68;;;3.20;;
22121;SDS011;11227;53.046;10.512;2022-11-13T18:33:51;5.18;;;3.35;;
22121;SDS011;11227;53.046;10.512;2022-11-13T18:37:53;5.45;;;3.47;;
22121;SDS011;11227;53.046;10.512;2022-11-13T18:41:56;5.38;;;3.60;;
22121;SDS011;11227;53.046;10.512;2022-11-13T18:46:01;4.75;;;3.45;;
22121;SDS011;11227;53.046;10.512;2022-11-13T18:50:05;4.50;;;3.17;;
22121;SDS011;11227;53.046;10.512;2022-11-13T18:54:06;5.47;;;3.58;;
22121;SDS011;11227;53.046;10.512;2022-11-13T18:58:11;3.85;;;3.08;;
22121;SDS011;11227;53.046;10.512;2022-11-13T19:02:13;8.27;;;3.67;;
22121;SDS011;11227;53.046;10.512;2022-11-13T19:06:15;4.57;;;3.33;;
22121;SDS011;11227;53.046;10.512;2022-11-13T19:10:18;4.63;;;3.28;;
22121;SDS011;11227;53.046;10.512;2022-11-13T19:14:20;4.57;;;3.67;;
22121;SDS011;11227;53.046;10.512;2022-11-13T19:18:22;3.95;;;3.17;;
22121;SDS011;11227;53.046;10.512;2022-11-13T19:22:24;4.45;;;3.35;;
22121;SDS011;11227;53.046;10.512;2022-11-13T19:26:26;4.07;;;3.28;;
22121;SDS011;11227;53.046;10.512;2022-11-13T19:30:27;4.97;;;3.38;;
22121;SDS011;11227;53.046;10.512;2022-11-13T19:34:29;5.07;;;3.40;;
22121;SDS011;11227;53.046;10.512;2022-11-13T19:38:31;4.60;;;3.30;;
22121;SDS011;11227;53.046;10.512;2022-11-13T19:42:33;3.83;;;3.28;;
22121;SDS011;11227;53.046;10.512;2022-11-13T19:46:40;5.88;;;3.65;;
22121;SDS011;11227;53.046;10.512;2022-11-13T19:50:42;4.57;;;3.38;;
22121;SDS011;11227;53.046;10.512;2022-11-13T19:54:47;4.68;;;3.63;;
22121;SDS011;11227;53.046;10.512;2022-11-13T19:58:49;4.80;;;3.47;;
22121;SDS011;11227;53.046;10.512;2022-11-13T20:02:53;4.95;;;3.58;;
22121;SDS011;11227;53.046;10.512;2022-11-13T20:06:55;4.57;;;3.47;;
22121;SDS011;11227;53.046;10.512;2022-11-13T20:11:04;5.00;;;3.33;;
22121;SDS011;11227;53.046;10.512;2022-11-13T20:15:10;5.05;;;3.40;;
22121;SDS011;11227;53.046;10.512;2022-11-13T20:19:12;4.25;;;3.45;;
22121;SDS011;11227;53.046;10.512;2022-11-13T20:23:13;4.68;;;3.22;;
22121;SDS011;11227;53.046;10.512;2022-11-13T20:27:15;4.32;;;3.40;;
22121;SDS011;11227;53.046;10.512;2022-11-13T20:31:18;4.25;;;3.50;;
22121;SDS011;11227;53.046;10.512;2022-11-13T20:35:22;4.00;;;3.60;;
22121;SDS011;11227;53.046;10.512;2022-11-13T20:39:24;4.97;;;3.28;;
22121;SDS011;11227;53.046;10.512;2022-11-13T20:43:25;4.60;;;3.47;;
22121;SDS011;11227;53.046;10.512;2022-11-13T20:47:27;5.38;;;3.22;;
22121;SDS011;11227;53.046;10.512;2022-11-13T20:51:28;4.57;;;3.47;;
22121;SDS011;11227;53.046;10.512;2022-11-13T20:55:30;4.70;;;3.55;;
22121;SDS011;11227;53.046;10.512;2022-11-13T20:59:32;5.45;;;4.15;;
22121;SDS011;11227;53.046;10.512;2022-11-13T21:03:36;4.45;;;3.58;;
22121;SDS011;11227;53.046;10.512;2022-11-13T21:07:41;4.68;;;3.30;;
22121;SDS011;11227;53.046;10.512;2022-11-13T21:11:43;4.43;;;3.78;;
22121;SDS011;11227;53.046;10.512;2022-11-13T21:15:45;6.60;;;3.50;;
22121;SDS011;11227;53.046;10.512;2022-11-13T21:19:46;5.07;;;3.53;;
22121;SDS011;11227;53.046;10.512;2022-11-13T21:23:48;7.00;;;3.80;;
22121;SDS011;11227;53.046;10.512;2022-11-13T21:27:52;4.13;;;3.15;;
22121;SDS011;11227;53.046;10.512;2022-11-13T21:31:54;4.82;;;3.60;;
22121;SDS011;11227;53.046;10.512;2022-11-13T21:36:01;4.63;;;3.85;;
22121;SDS011;11227;53.046;10.512;2022-11-13T21:40:05;5.22;;;4.10;;
22121;SDS011;11227;53.046;10.512;2022-11-13T21:44:08;5.80;;;4.05;;
22121;SDS011;11227;53.046;10.512;2022-11-13T21:48:10;5.30;;;3.83;;
22121;SDS011;11227;53.046;10.512;2022-11-13T21:52:12;4.97;;;3.70;;
22121;SDS011;11227;53.046;10.512;2022-11-13T21:56:14;5.00;;;3.60;;
22121;SDS011;11227;53.046;10.512;2022-11-13T22:00:16;5.88;;;4.15;;
22121;SDS011;11227;53.046;10.512;2022-11-13T22:04:18;4.95;;;3.55;;
22121;SDS011;11227;53.046;10.512;2022-11-13T22:08:19;5.20;;;4.07;;
22121;SDS011;11227;53.046;10.512;2022-11-13T22:12:21;4.95;;;3.75;;
22121;SDS011;11227;53.046;10.512;2022-11-13T22:16:23;5.05;;;4.05;;
22121;SDS011;11227;53.046;10.512;2022-11-13T22:20:26;4.28;;;3.58;;
22121;SDS011;11227;53.046;10.512;2022-11-13T22:24:28;5.55;;;4.07;;
22121;SDS011;11227;53.046;10.512;2022-11-13T22:28:31;5.28;;;3.95;;
22121;SDS011;11227;53.046;10.512;2022-11-13T22:32:34;4.90;;;3.60;;
22121;SDS011;11227;53.046;10.512;2022-11-13T22:36:35;5.13;;;4.03;;
22121;SDS011;11227;53.046;10.512;2022-11-13T22:40:37;6.22;;;4.15;;
22121;SDS011;11227;53.046;10.512;2022-11-13T22:44:39;5.82;;;4.20;;
22121;SDS011;11227;53.046;10.512;2022-11-13T22:48:56;5.82;;;4.28;;
22121;SDS011;11227;53.046;10.512;2022-11-13T22:52:59;5.50;;;4.40;;
22121;SDS011;11227;53.046;10.512;2022-11-13T22:57:01;4.78;;;4.18;;
22121;SDS011;11227;53.046;10.512;2022-11-13T23:05:07;5.25;;;4.03;;
22121;SDS011;11227;53.046;10.512;2022-11-13T23:09:08;4.82;;;4.00;;
22121;SDS011;11227;53.046;10.512;2022-11-13T23:13:11;5.80;;;3.97;;
22121;SDS011;11227;53.046;10.512;2022-11-13T23:17:12;6.38;;;3.75;;
22121;SDS011;11227;53.046;10.512;2022-11-13T23:21:14;4.95;;;4.20;;
22121;SDS011;11227;53.046;10.512;2022-11-13T23:25:16;5.60;;;4.18;;
22121;SDS011;11227;53.046;10.512;2022-11-13T23:29:18;5.40;;;4.03;;
22121;SDS011;11227;53.046;10.512;2022-11-13T23:33:20;4.82;;;3.88;;
22121;SDS011;11227;53.046;10.512;2022-11-13T23:37:22;5.95;;;4.35;;
22121;SDS011;11227;53.046;10.512;2022-11-13T23:41:23;5.78;;;4.10;;
22121;SDS011;11227;53.046;10.512;2022-11-13T23:45:25;5.00;;;4.00;;
22121;SDS011;11227;53.046;10.512;2022-11-13T23:49:27;7.15;;;4.40;;
22121;SDS011;11227;53.046;10.512;2022-11-13T23:53:29;4.90;;;3.78;;
22121;SDS011;11227;53.046;10.512;2022-11-13T23:57:31;6.97;;;4.80;;
